sensor_id;sensor_type;location;lat;lon;timestamp;P1;durP1;ratioP1;P2;durP2;ratioP2
11173;SDS011;5643;50.856;12.088;2023-06-04T03:45:37;1.37;;;1.27;;
11173;SDS011;5643;50.856;12.088;2023-06-04T04:48:16;1.77;;;1.67;;
11173;SDS011;5643;50.856;12.088;2023-06-04T04:50:48;2.20;;;2.00;;
11173;SDS011;5643;50.856;12.088;2023-06-04T04:53:23;2.73;;;2.50;;
11173;SDS011;5643;50.856;12.088;2023-06-04T04:55:56;2.60;;;2.10;;
11173;SDS011;5643;50.856;12.088;2023-06-04T04:58:32;2.30;;;2.10;;
11173;SDS011;5643;50.856;12.088;2023-06-04T05:01:07;2.00;;;1.90;;
11173;SDS011;5643;50.856;12.088;2023-06-04T05:03:43;2.00;;;1.90;;
11173;SDS011;5643;50.856;12.088;2023-06-04T05:06:15;2.77;;;2.50;;
11173;SDS011;5643;50.856;12.088;2023-06-04T05:08:50;2.33;;;2.13;;
11173;SDS011;5643;50.856;12.088;2023-06-04T05:11:20;2.13;;;1.97;;
11173;SDS011;5643;50.856;12.088;2023-06-04T05:13:49;2.13;;;1.93;;
11173;SDS011;5643;50.856;12.088;2023-06-04T05:16:26;2.67;;;2.47;;
11173;SDS011;5643;50.856;12.088;2023-06-04T05:19:00;2.43;;;2.23;;
11173;SDS011;5643;50.856;12.088;2023-06-04T05:21:36;2.00;;;1.90;;
11173;SDS011;5643;50.856;12.088;2023-06-04T05:24:07;1.90;;;1.80;;
11173;SDS011;5643;50.856;12.088;2023-06-04T05:26:46;2.07;;;1.93;;
11173;SDS011;5643;50.856;12.088;2023-06-04T05:29:18;2.20;;;2.00;;
11173;SDS011;5643;50.856;12.088;2023-06-04T05:31:51;1.80;;;1.70;;
11173;SDS011;5643;50.856;12.088;2023-06-04T05:34:22;2.10;;;2.00;;
11173;SDS011;5643;50.856;12.088;2023-06-04T05:37:08;2.20;;;2.07;;
11173;SDS011;5643;50.856;12.088;2023-06-04T05:39:41;2.10;;;2.00;;
11173;SDS011;5643;50.856;12.088;2023-06-04T05:42:09;3.37;;;2.43;;
11173;SDS011;5643;50.856;12.088;2023-06-04T05:44:41;2.13;;;1.70;;
11173;SDS011;5643;50.856;12.088;2023-06-04T05:47:15;2.40;;;1.83;;
11173;SDS011;5643;50.856;12.088;2023-06-04T05:49:51;2.23;;;2.03;;
11173;SDS011;5643;50.856;12.088;2023-06-04T05:52:20;1.93;;;1.80;;
11173;SDS011;5643;50.856;12.088;2023-06-04T05:54:53;2.10;;;1.50;;
11173;SDS011;5643;50.856;12.088;2023-06-04T05:57:27;1.33;;;1.23;;
11173;SDS011;5643;50.856;12.088;2023-06-04T06:00:00;1.50;;;1.40;;
11173;SDS011;5643;50.856;12.088;2023-06-04T06:02:32;1.40;;;1.30;;
11173;SDS011;5643;50.856;12.088;2023-06-04T06:05:07;2.20;;;1.50;;
11173;SDS011;5643;50.856;12.088;2023-06-04T06:07:45;1.43;;;1.33;;
11173;SDS011;5643;50.856;12.088;2023-06-04T06:10:21;2.13;;;1.80;;
11173;SDS011;5643;50.856;12.088;2023-06-04T06:12:52;2.27;;;2.10;;
11173;SDS011;5643;50.856;12.088;2023-06-04T06:15:25;2.50;;;2.30;;
11173;SDS011;5643;50.856;12.088;2023-06-04T06:17:58;2.00;;;1.90;;
11173;SDS011;5643;50.856;12.088;2023-06-04T06:20:32;1.90;;;1.80;;
11173;SDS011;5643;50.856;12.088;2023-06-04T06:23:05;2.43;;;2.20;;
11173;SDS011;5643;50.856;12.088;2023-06-04T06:25:33;2.23;;;2.03;;
11173;SDS011;5643;50.856;12.088;2023-06-04T06:28:01;2.60;;;2.03;;
11173;SDS011;5643;50.856;12.088;2023-06-04T06:30:41;1.93;;;1.83;;
11173;SDS011;5643;50.856;12.088;2023-06-04T06:33:15;2.20;;;2.00;;
11173;SDS011;5643;50.856;12.088;2023-06-04T06:35:51;2.93;;;2.33;;
11173;SDS011;5643;50.856;12.088;2023-06-04T06:38:31;2.63;;;1.80;;
11173;SDS011;5643;50.856;12.088;2023-06-04T06:41:03;2.03;;;1.83;;
11173;SDS011;5643;50.856;12.088;2023-06-04T06:43:51;1.97;;;1.87;;
11173;SDS011;5643;50.856;12.088;2023-06-04T06:46:26;2.23;;;2.07;;
11173;SDS011;5643;50.856;12.088;2023-06-04T06:49:00;2.23;;;2.03;;
11173;SDS011;5643;50.856;12.088;2023-06-04T06:51:33;2.10;;;1.90;;
11173;SDS011;5643;50.856;12.088;2023-06-04T06:54:08;2.03;;;1.77;;
11173;SDS011;5643;50.856;12.088;2023-06-04T06:56:38;2.50;;;1.80;;
11173;SDS011;5643;50.856;12.088;2023-06-04T06:59:07;2.60;;;1.67;;
11173;SDS011;5643;50.856;12.088;2023-06-04T07:01:37;1.63;;;1.53;;
11173;SDS011;5643;50.856;12.088;2023-06-04T07:04:08;2.23;;;1.80;;
11173;SDS011;5643;50.856;12.088;2023-06-04T07:06:46;1.57;;;1.43;;
11173;SDS011;5643;50.856;12.088;2023-06-04T07:09:22;1.70;;;1.60;;
11173;SDS011;5643;50.856;12.088;2023-06-04T07:12:02;1.90;;;1.67;;
11173;SDS011;5643;50.856;12.088;2023-06-04T07:14:42;1.57;;;1.47;;
11173;SDS011;5643;50.856;12.088;2023-06-04T07:17:23;1.70;;;1.43;;
11173;SDS011;5643;50.856;12.088;2023-06-04T07:20:02;1.40;;;1.30;;
11173;SDS011;5643;50.856;12.088;2023-06-04T07:22:43;2.83;;;1.63;;
11173;SDS011;5643;50.856;12.088;2023-06-04T07:25:16;2.00;;;1.70;;
11173;SDS011;5643;50.856;12.088;2023-06-04T07:27:51;1.80;;;1.60;;
11173;SDS011;5643;50.856;12.088;2023-06-04T07:30:28;2.03;;;1.50;;
11173;SDS011;5643;50.856;12.088;2023-06-04T07:33:00;1.63;;;1.30;;
11173;SDS011;5643;50.856;12.088;2023-06-04T07:35:34;1.40;;;1.30;;
11173;SDS011;5643;50.856;12.088;2023-06-04T07:38:09;1.30;;;1.20;;
11173;SDS011;5643;50.856;12.088;2023-06-04T07:40:42;1.77;;;1.40;;
11173;SDS011;5643;50.856;12.088;2023-06-04T07:43:18;1.30;;;1.10;;
11173;SDS011;5643;50.856;12.088;2023-06-04T07:45:56;1.20;;;1.10;;
11173;SDS011;5643;50.856;12.088;2023-06-04T09:50:10;1.70;;;1.00;;
11173;SDS011;5643;50.856;12.088;2023-06-04T09:52:42;1.33;;;1.03;;
11173;SDS011;5643;50.856;12.088;2023-06-04T09:55:24;0.90;;;0.90;;
11173;SDS011;5643;50.856;12.088;2023-06-04T09:58:05;1.10;;;1.00;;
11173;SDS011;5643;50.856;12.088;2023-06-04T10:00:41;1.08;;;0.98;;
11173;SDS011;5643;50.856;12.088;2023-06-04T10:03:12;0.80;;;0.80;;
11173;SDS011;5643;50.856;12.088;2023-06-04T10:05:50;0.75;;;0.75;;
11173;SDS011;5643;50.856;12.088;2023-06-04T10:08:24;0.88;;;0.88;;
11173;SDS011;5643;50.856;12.088;2023-06-04T10:10:58;1.33;;;0.73;;
11173;SDS011;5643;50.856;12.088;2023-06-04T10:13:35;1.65;;;0.95;;
11173;SDS011;5643;50.856;12.088;2023-06-04T10:16:08;0.90;;;0.90;;
11173;SDS011;5643;50.856;12.088;2023-06-04T10:18:51;0.80;;;0.80;;
11173;SDS011;5643;50.856;12.088;2023-06-04T10:21:30;1.03;;;0.90;;
11173;SDS011;5643;50.856;12.088;2023-06-04T10:24:10;0.80;;;0.70;;
11173;SDS011;5643;50.856;12.088;2023-06-04T10:26:42;0.75;;;0.75;;
11173;SDS011;5643;50.856;12.088;2023-06-04T10:29:17;0.90;;;0.90;;
11173;SDS011;5643;50.856;12.088;2023-06-04T10:31:55;1.48;;;1.00;;
11173;SDS011;5643;50.856;12.088;2023-06-04T10:34:28;1.48;;;1.17;;
11173;SDS011;5643;50.856;12.088;2023-06-04T10:36:57;0.80;;;0.80;;
11173;SDS011;5643;50.856;12.088;2023-06-04T10:39:35;1.60;;;1.00;;
11173;SDS011;5643;50.856;12.088;2023-06-04T10:42:12;1.25;;;0.70;;
11173;SDS011;5643;50.856;12.088;2023-06-04T10:44:47;0.93;;;0.90;;
11173;SDS011;5643;50.856;12.088;2023-06-04T10:47:19;1.00;;;0.77;;
11173;SDS011;5643;50.856;12.088;2023-06-04T10:49:52;0.95;;;0.93;;
11173;SDS011;5643;50.856;12.088;2023-06-04T10:52:24;0.60;;;0.60;;
11173;SDS011;5643;50.856;12.088;2023-06-04T10:55:03;0.90;;;0.90;;
11173;SDS011;5643;50.856;12.088;2023-06-04T10:57:32;0.80;;;0.80;;
11173;SDS011;5643;50.856;12.088;2023-06-04T11:00:10;2.08;;;1.00;;
11173;SDS011;5643;50.856;12.088;2023-06-04T11:02:50;0.95;;;0.80;;
11173;SDS011;5643;50.856;12.088;2023-06-04T11:05:20;0.60;;;0.60;;
11173;SDS011;5643;50.856;12.088;2023-06-04T11:07:54;0.60;;;0.60;;
11173;SDS011;5643;50.856;12.088;2023-06-04T11:10:31;0.70;;;0.70;;
11173;SDS011;5643;50.856;12.088;2023-06-04T11:13:15;0.70;;;0.70;;
11173;SDS011;5643;50.856;12.088;2023-06-04T11:15:56;1.05;;;0.70;;
11173;SDS011;5643;50.856;12.088;2023-06-04T11:18:26;1.23;;;0.93;;
11173;SDS011;5643;50.856;12.088;2023-06-04T11:21:07;1.23;;;1.00;;
11173;SDS011;5643;50.856;12.088;2023-06-04T11:23:48;0.90;;;0.90;;
11173;SDS011;5643;50.856;12.088;2023-06-04T11:26:29;0.60;;;0.60;;
11173;SDS011;5643;50.856;12.088;2023-06-04T11:29:00;0.60;;;0.60;;
11173;SDS011;5643;50.856;12.088;2023-06-04T11:31:40;0.70;;;0.70;;
11173;SDS011;5643;50.856;12.088;2023-06-04T11:34:21;1.10;;;0.90;;
11173;SDS011;5643;50.856;12.088;2023-06-04T11:36:52;0.88;;;0.75;;
11173;SDS011;5643;50.856;12.088;2023-06-04T11:39:35;0.70;;;0.70;;
11173;SDS011;5643;50.856;12.088;2023-06-04T11:42:16;0.70;;;0.70;;
11173;SDS011;5643;50.856;12.088;2023-06-04T11:44:55;0.57;;;0.57;;
11173;SDS011;5643;50.856;12.088;2023-06-04T11:47:33;0.73;;;0.73;;
11173;SDS011;5643;50.856;12.088;2023-06-04T11:50:08;0.80;;;0.80;;
11173;SDS011;5643;50.856;12.088;2023-06-04T11:52:42;1.23;;;1.00;;
11173;SDS011;5643;50.856;12.088;2023-06-04T11:55:22;0.60;;;0.60;;
11173;SDS011;5643;50.856;12.088;2023-06-04T11:58:02;1.30;;;0.80;;
11173;SDS011;5643;50.856;12.088;2023-06-04T12:00:33;0.60;;;0.60;;
11173;SDS011;5643;50.856;12.088;2023-06-04T12:03:08;0.80;;;0.80;;
11173;SDS011;5643;50.856;12.088;2023-06-04T12:05:36;0.68;;;0.68;;
11173;SDS011;5643;50.856;12.088;2023-06-04T12:08:12;0.55;;;0.52;;
11173;SDS011;5643;50.856;12.088;2023-06-04T12:10:56;1.13;;;0.80;;
11173;SDS011;5643;50.856;12.088;2023-06-04T12:13:36;0.98;;;0.90;;
11173;SDS011;5643;50.856;12.088;2023-06-04T12:16:13;0.98;;;0.90;;
11173;SDS011;5643;50.856;12.088;2023-06-04T12:18:47;1.45;;;0.60;;
11173;SDS011;5643;50.856;12.088;2023-06-04T12:21:26;1.10;;;0.98;;
11173;SDS011;5643;50.856;12.088;2023-06-04T12:24:05;1.33;;;0.95;;
11173;SDS011;5643;50.856;12.088;2023-06-04T12:26:44;2.03;;;0.98;;
11173;SDS011;5643;50.856;12.088;2023-06-04T12:29:22;1.05;;;1.00;;
11173;SDS011;5643;50.856;12.088;2023-06-04T12:32:03;0.80;;;0.80;;
11173;SDS011;5643;50.856;12.088;2023-06-04T12:34:40;0.77;;;0.60;;
11173;SDS011;5643;50.856;12.088;2023-06-04T12:37:11;1.40;;;0.77;;
11173;SDS011;5643;50.856;12.088;2023-06-04T12:39:54;0.85;;;0.85;;
11173;SDS011;5643;50.856;12.088;2023-06-04T12:42:29;1.15;;;0.80;;
11173;SDS011;5643;50.856;12.088;2023-06-04T12:45:02;0.70;;;0.70;;
11173;SDS011;5643;50.856;12.088;2023-06-04T12:47:30;0.70;;;0.70;;
11173;SDS011;5643;50.856;12.088;2023-06-04T13:51:39;1.10;;;1.00;;
11173;SDS011;5643;50.856;12.088;2023-06-04T13:54:16;0.85;;;0.85;;
11173;SDS011;5643;50.856;12.088;2023-06-04T13:56:53;1.67;;;0.90;;
11173;SDS011;5643;50.856;12.088;2023-06-04T13:59:31;1.30;;;0.80;;
11173;SDS011;5643;50.856;12.088;2023-06-04T14:02:05;0.80;;;0.80;;
11173;SDS011;5643;50.856;12.088;2023-06-04T14:04:43;0.60;;;0.60;;
11173;SDS011;5643;50.856;12.088;2023-06-04T14:07:23;0.98;;;0.85;;
11173;SDS011;5643;50.856;12.088;2023-06-04T14:10:01;1.65;;;1.02;;
11173;SDS011;5643;50.856;12.088;2023-06-04T14:12:37;0.82;;;0.82;;
11173;SDS011;5643;50.856;12.088;2023-06-04T14:15:16;0.90;;;0.90;;
11173;SDS011;5643;50.856;12.088;2023-06-04T14:17:52;0.80;;;0.80;;
11173;SDS011;5643;50.856;12.088;2023-06-04T14:20:21;2.20;;;1.05;;
11173;SDS011;5643;50.856;12.088;2023-06-04T14:22:55;1.20;;;0.93;;
11173;SDS011;5643;50.856;12.088;2023-06-04T14:25:42;0.73;;;0.73;;
11173;SDS011;5643;50.856;12.088;2023-06-04T14:28:13;0.77;;;0.77;;
11173;SDS011;5643;50.856;12.088;2023-06-04T14:30:50;0.75;;;0.70;;
11173;SDS011;5643;50.856;12.088;2023-06-04T14:33:31;1.10;;;0.90;;
11173;SDS011;5643;50.856;12.088;2023-06-04T14:36:02;0.93;;;0.93;;
11173;SDS011;5643;50.856;12.088;2023-06-04T14:38:45;1.00;;;0.90;;
11173;SDS011;5643;50.856;12.088;2023-06-04T14:41:33;0.82;;;0.80;;
11173;SDS011;5643;50.856;12.088;2023-06-04T14:44:09;0.73;;;0.70;;
11173;SDS011;5643;50.856;12.088;2023-06-04T14:46:50;1.30;;;0.90;;
11173;SDS011;5643;50.856;12.088;2023-06-04T14:49:25;0.80;;;0.80;;
11173;SDS011;5643;50.856;12.088;2023-06-04T14:52:05;0.77;;;0.77;;
11173;SDS011;5643;50.856;12.088;2023-06-04T14:54:47;0.65;;;0.65;;
11173;SDS011;5643;50.856;12.088;2023-06-04T14:57:18;0.93;;;0.90;;
11173;SDS011;5643;50.856;12.088;2023-06-04T14:59:54;0.85;;;0.60;;
11173;SDS011;5643;50.856;12.088;2023-06-04T15:02:23;0.77;;;0.77;;
11173;SDS011;5643;50.856;12.088;2023-06-04T15:05:10;1.50;;;0.90;;
11173;SDS011;5643;50.856;12.088;2023-06-04T15:07:44;1.15;;;0.90;;
11173;SDS011;5643;50.856;12.088;2023-06-04T15:10:27;1.23;;;0.90;;
11173;SDS011;5643;50.856;12.088;2023-06-04T15:12:56;0.88;;;0.88;;
11173;SDS011;5643;50.856;12.088;2023-06-04T15:15:29;0.90;;;0.90;;
11173;SDS011;5643;50.856;12.088;2023-06-04T15:17:59;0.82;;;0.82;;
11173;SDS011;5643;50.856;12.088;2023-06-04T15:20:42;0.80;;;0.80;;
11173;SDS011;5643;50.856;12.088;2023-06-04T15:23:15;0.77;;;0.77;;
11173;SDS011;5643;50.856;12.088;2023-06-04T15:25:50;1.38;;;0.77;;
11173;SDS011;5643;50.856;12.088;2023-06-04T15:28:27;1.00;;;1.00;;
11173;SDS011;5643;50.856;12.088;2023-06-04T15:31:05;1.02;;;0.90;;
11173;SDS011;5643;50.856;12.088;2023-06-04T15:33:36;1.00;;;0.90;;
11173;SDS011;5643;50.856;12.088;2023-06-04T15:36:10;1.30;;;0.80;;
11173;SDS011;5643;50.856;12.088;2023-06-04T15:38:43;0.73;;;0.73;;
11173;SDS011;5643;50.856;12.088;2023-06-04T15:41:27;0.70;;;0.70;;
11173;SDS011;5643;50.856;12.088;2023-06-04T15:43:56;1.00;;;1.00;;
11173;SDS011;5643;50.856;12.088;2023-06-04T15:46:39;0.90;;;0.90;;
11173;SDS011;5643;50.856;12.088;2023-06-04T15:49:14;2.13;;;0.93;;
11173;SDS011;5643;50.856;12.088;2023-06-04T16:52:47;1.05;;;1.00;;
11173;SDS011;5643;50.856;12.088;2023-06-04T16:55:14;1.27;;;0.93;;
11173;SDS011;5643;50.856;12.088;2023-06-04T16:57:42;0.68;;;0.68;;
11173;SDS011;5643;50.856;12.088;2023-06-04T17:00:09;1.33;;;1.08;;
11173;SDS011;5643;50.856;12.088;2023-06-04T17:02:36;1.13;;;1.02;;
11173;SDS011;5643;50.856;12.088;2023-06-04T17:05:04;1.00;;;1.00;;
11173;SDS011;5643;50.856;12.088;2023-06-04T17:07:34;0.98;;;0.98;;
11173;SDS011;5643;50.856;12.088;2023-06-04T17:10:02;1.48;;;0.95;;
11173;SDS011;5643;50.856;12.088;2023-06-04T17:12:30;1.45;;;0.95;;
11173;SDS011;5643;50.856;12.088;2023-06-04T17:15:01;0.85;;;0.85;;
11173;SDS011;5643;50.856;12.088;2023-06-04T17:31:21;1.00;;;0.90;;
11173;SDS011;5643;50.856;12.088;2023-06-04T17:33:48;1.30;;;1.20;;
11173;SDS011;5643;50.856;12.088;2023-06-04T17:36:16;1.05;;;0.90;;
11173;SDS011;5643;50.856;12.088;2023-06-04T17:38:45;0.98;;;0.98;;
11173;SDS011;5643;50.856;12.088;2023-06-04T17:41:12;0.90;;;0.90;;
11173;SDS011;5643;50.856;12.088;2023-06-04T17:43:40;0.80;;;0.80;;
11173;SDS011;5643;50.856;12.088;2023-06-04T17:46:08;1.40;;;1.30;;
11173;SDS011;5643;50.856;12.088;2023-06-04T17:48:38;1.50;;;1.40;;
11173;SDS011;5643;50.856;12.088;2023-06-04T17:51:06;1.33;;;1.23;;
11173;SDS011;5643;50.856;12.088;2023-06-04T17:53:37;0.90;;;0.90;;
11173;SDS011;5643;50.856;12.088;2023-06-04T17:56:04;2.00;;;0.80;;
11173;SDS011;5643;50.856;12.088;2023-06-04T17:58:32;1.00;;;0.90;;
11173;SDS011;5643;50.856;12.088;2023-06-04T18:00:59;0.70;;;0.70;;
11173;SDS011;5643;50.856;12.088;2023-06-04T18:03:27;0.83;;;0.83;;
11173;SDS011;5643;50.856;12.088;2023-06-04T18:05:55;0.63;;;0.60;;
11173;SDS011;5643;50.856;12.088;2023-06-04T18:08:23;0.50;;;0.50;;
11173;SDS011;5643;50.856;12.088;2023-06-04T18:10:50;0.90;;;0.90;;
11173;SDS011;5643;50.856;12.088;2023-06-04T18:13:18;0.63;;;0.63;;
11173;SDS011;5643;50.856;12.088;2023-06-04T18:15:45;0.80;;;0.80;;
11173;SDS011;5643;50.856;12.088;2023-06-04T18:18:13;0.70;;;0.70;;
11173;SDS011;5643;50.856;12.088;2023-06-04T18:20:41;0.63;;;0.63;;
11173;SDS011;5643;50.856;12.088;2023-06-04T18:23:09;0.63;;;0.63;;
11173;SDS011;5643;50.856;12.088;2023-06-04T18:25:39;0.80;;;0.80;;
11173;SDS011;5643;50.856;12.088;2023-06-04T18:28:08;0.77;;;0.77;;
11173;SDS011;5643;50.856;12.088;2023-06-04T18:30:37;0.77;;;0.77;;
11173;SDS011;5643;50.856;12.088;2023-06-04T18:33:04;0.90;;;0.90;;
11173;SDS011;5643;50.856;12.088;2023-06-04T18:35:31;1.27;;;0.90;;
11173;SDS011;5643;50.856;12.088;2023-06-04T18:37:58;1.30;;;1.20;;
11173;SDS011;5643;50.856;12.088;2023-06-04T18:40:27;1.17;;;1.07;;
11173;SDS011;5643;50.856;12.088;2023-06-04T18:42:54;1.40;;;1.30;;
11173;SDS011;5643;50.856;12.088;2023-06-04T18:45:23;1.30;;;1.10;;
11173;SDS011;5643;50.856;12.088;2023-06-04T18:47:50;1.17;;;1.07;;
11173;SDS011;5643;50.856;12.088;2023-06-04T18:50:17;1.00;;;1.00;;
11173;SDS011;5643;50.856;12.088;2023-06-04T18:52:45;1.70;;;1.50;;
11173;SDS011;5643;50.856;12.088;2023-06-04T18:55:12;1.53;;;1.43;;
11173;SDS011;5643;50.856;12.088;2023-06-04T18:57:43;1.53;;;1.43;;
11173;SDS011;5643;50.856;12.088;2023-06-04T19:00:10;1.63;;;1.37;;
11173;SDS011;5643;50.856;12.088;2023-06-04T19:02:38;2.10;;;1.90;;
11173;SDS011;5643;50.856;12.088;2023-06-04T19:05:06;2.20;;;1.93;;
11173;SDS011;5643;50.856;12.088;2023-06-04T19:07:34;2.23;;;1.97;;
11173;SDS011;5643;50.856;12.088;2023-06-04T19:10:01;1.80;;;1.70;;
11173;SDS011;5643;50.856;12.088;2023-06-04T19:12:28;2.47;;;1.90;;
11173;SDS011;5643;50.856;12.088;2023-06-04T19:14:58;2.07;;;1.60;;
11173;SDS011;5643;50.856;12.088;2023-06-04T19:17:26;1.83;;;1.63;;
11173;SDS011;5643;50.856;12.088;2023-06-04T19:19:54;1.90;;;1.60;;
11173;SDS011;5643;50.856;12.088;2023-06-04T19:22:21;1.90;;;1.70;;
11173;SDS011;5643;50.856;12.088;2023-06-04T19:24:50;1.60;;;1.40;;
11173;SDS011;5643;50.856;12.088;2023-06-04T19:27:17;1.23;;;1.13;;
11173;SDS011;5643;50.856;12.088;2023-06-04T19:29:45;1.50;;;1.40;;
11173;SDS011;5643;50.856;12.088;2023-06-04T19:32:14;1.13;;;1.00;;
11173;SDS011;5643;50.856;12.088;2023-06-04T19:34:41;1.30;;;1.20;;
11173;SDS011;5643;50.856;12.088;2023-06-04T19:37:09;0.73;;;0.73;;
11173;SDS011;5643;50.856;12.088;2023-06-04T19:39:36;1.00;;;0.80;;
11173;SDS011;5643;50.856;12.088;2023-06-04T19:42:04;0.70;;;0.70;;
11173;SDS011;5643;50.856;12.088;2023-06-04T19:44:32;0.70;;;0.70;;
11173;SDS011;5643;50.856;12.088;2023-06-04T19:47:01;0.90;;;0.67;;
11173;SDS011;5643;50.856;12.088;2023-06-04T19:49:31;0.60;;;0.60;;
11173;SDS011;5643;50.856;12.088;2023-06-04T20:52:55;1.27;;;0.80;;
11173;SDS011;5643;50.856;12.088;2023-06-04T20:55:23;0.70;;;0.70;;
11173;SDS011;5643;50.856;12.088;2023-06-04T20:57:50;0.60;;;0.60;;
11173;SDS011;5643;50.856;12.088;2023-06-04T21:00:17;0.77;;;0.77;;
11173;SDS011;5643;50.856;12.088;2023-06-04T21:02:46;0.60;;;0.60;;
11173;SDS011;5643;50.856;12.088;2023-06-04T21:05:28;0.70;;;0.70;;
11173;SDS011;5643;50.856;12.088;2023-06-04T21:07:58;0.70;;;0.70;;
11173;SDS011;5643;50.856;12.088;2023-06-04T21:10:25;0.60;;;0.60;;
11173;SDS011;5643;50.856;12.088;2023-06-04T21:12:59;1.13;;;1.07;;
11173;SDS011;5643;50.856;12.088;2023-06-04T21:15:28;0.83;;;0.80;;
11173;SDS011;5643;50.856;12.088;2023-06-04T21:17:58;1.70;;;0.80;;
11173;SDS011;5643;50.856;12.088;2023-06-04T21:20:26;0.90;;;0.80;;
11173;SDS011;5643;50.856;12.088;2023-06-04T21:22:59;0.70;;;0.70;;
11173;SDS011;5643;50.856;12.088;2023-06-04T21:25:28;0.80;;;0.80;;
11173;SDS011;5643;50.856;12.088;2023-06-04T21:27:55;0.70;;;0.70;;
11173;SDS011;5643;50.856;12.088;2023-06-04T21:30:25;0.73;;;0.73;;
11173;SDS011;5643;50.856;12.088;2023-06-04T21:32:55;0.77;;;0.77;;
11173;SDS011;5643;50.856;12.088;2023-06-04T21:35:23;1.00;;;0.90;;
11173;SDS011;5643;50.856;12.088;2023-06-04T21:38:05;0.67;;;0.67;;
11173;SDS011;5643;50.856;12.088;2023-06-04T21:40:32;0.63;;;0.63;;
11173;SDS011;5643;50.856;12.088;2023-06-04T21:42:59;0.80;;;0.70;;
11173;SDS011;5643;50.856;12.088;2023-06-04T21:45:26;0.67;;;0.67;;
11173;SDS011;5643;50.856;12.088;2023-06-04T21:47:54;0.60;;;0.60;;
11173;SDS011;5643;50.856;12.088;2023-06-04T21:50:24;0.70;;;0.70;;
11173;SDS011;5643;50.856;12.088;2023-06-04T21:52:52;0.70;;;0.70;;
11173;SDS011;5643;50.856;12.088;2023-06-04T21:55:21;0.70;;;0.70;;
11173;SDS011;5643;50.856;12.088;2023-06-04T21:57:50;0.83;;;0.83;;
11173;SDS011;5643;50.856;12.088;2023-06-04T22:00:17;0.77;;;0.77;;
11173;SDS011;5643;50.856;12.088;2023-06-04T22:02:49;0.80;;;0.80;;
11173;SDS011;5643;50.856;12.088;2023-06-04T22:05:17;0.80;;;0.80;;
11173;SDS011;5643;50.856;12.088;2023-06-04T22:07:45;0.60;;;0.60;;
11173;SDS011;5643;50.856;12.088;2023-06-04T22:10:12;0.63;;;0.63;;
11173;SDS011;5643;50.856;12.088;2023-06-04T22:12:41;0.80;;;0.80;;
11173;SDS011;5643;50.856;12.088;2023-06-04T22:15:10;0.70;;;0.70;;
11173;SDS011;5643;50.856;12.088;2023-06-04T22:17:37;0.80;;;0.80;;
11173;SDS011;5643;50.856;12.088;2023-06-04T22:20:05;0.80;;;0.80;;
11173;SDS011;5643;50.856;12.088;2023-06-04T22:22:36;0.60;;;0.60;;
11173;SDS011;5643;50.856;12.088;2023-06-04T22:25:08;0.70;;;0.70;;
11173;SDS011;5643;50.856;12.088;2023-06-04T22:27:35;0.80;;;0.80;;
11173;SDS011;5643;50.856;12.088;2023-06-04T22:30:05;0.80;;;0.80;;
11173;SDS011;5643;50.856;12.088;2023-06-04T22:32:32;1.20;;;1.10;;
11173;SDS011;5643;50.856;12.088;2023-06-04T22:35:05;0.70;;;0.70;;
11173;SDS011;5643;50.856;12.088;2023-06-04T22:37:33;0.70;;;0.70;;
11173;SDS011;5643;50.856;12.088;2023-06-04T22:40:01;0.60;;;0.60;;
11173;SDS011;5643;50.856;12.088;2023-06-04T22:42:30;1.00;;;0.90;;
11173;SDS011;5643;50.856;12.088;2023-06-04T22:44:57;0.70;;;0.70;;
11173;SDS011;5643;50.856;12.088;2023-06-04T22:47:27;0.83;;;0.83;;
11173;SDS011;5643;50.856;12.088;2023-06-04T22:49:54;0.70;;;0.70;;
11173;SDS011;5643;50.856;12.088;2023-06-04T23:53:13;0.80;;;0.80;;
11173;SDS011;5643;50.856;12.088;2023-06-04T23:55:40;0.80;;;0.80;;
11173;SDS011;5643;50.856;12.088;2023-06-04T23:58:07;0.70;;;0.70;;
